sensor_id;sensor_type;location;lat;lon;timestamp;pressure;altitude;pressure_sealevel;temperature;humidity
13456;BME280;6800;50.940;6.940;2024-01-15T00:01:30;99622.06;;;9.72;49.64
13456;BME280;6800;50.940;6.940;2024-01-15T00:05:31;99624.22;;;9.78;49.26
13456;BME280;6800;50.940;6.940;2024-01-15T00:09:33;99605.97;;;9.41;51.01
13456;BME280;6800;50.940;6.940;2024-01-15T00:13:35;99606.44;;;9.95;49.83
13456;BME280;6800;50.940;6.940;2024-01-15T00:17:37;99604.22;;;10.14;50.05
13456;BME280;6800;50.940;6.940;2024-01-15T00:21:40;99613.22;;;9.98;50.04
13456;BME280;6800;50.940;6.940;2024-01-15T00:25:41;99599.38;;;9.49;51.07
13456;BME280;6800;50.940;6.940;2024-01-15T00:29:43;99608.88;;;9.50;51.56
13456;BME280;6800;50.940;6.940;2024-01-15T00:33:44;99594.09;;;9.74;51.21
13456;BME280;6800;50.940;6.940;2024-01-15T00:37:46;99598.75;;;9.58;51.22
13456;BME280;6800;50.940;6.940;2024-01-15T00:41:48;99597.97;;;9.32;52.51
13456;BME280;6800;50.940;6.940;2024-01-15T00:45:49;99598.47;;;9.50;51.68
13456;BME280;6800;50.940;6.940;2024-01-15T00:49:52;99593.06;;;9.27;52.49
13456;BME280;6800;50.940;6.940;2024-01-15T00:53:54;99582.16;;;9.59;52.26
13456;BME280;6800;50.940;6.940;2024-01-15T00:57:55;99576.78;;;9.49;52.07
13456;BME280;6800;50.940;6.940;2024-01-15T01:01:57;99583.94;;;9.71;51.97
13456;BME280;6800;50.940;6.940;2024-01-15T01:06:02;99583.34;;;9.42;52.76
13456;BME280;6800;50.940;6.940;2024-01-15T01:10:04;99584.03;;;9.57;52.15
13456;BME280;6800;50.940;6.940;2024-01-15T01:14:06;99584.00;;;9.46;52.48
13456;BME280;6800;50.940;6.940;2024-01-15T01:18:07;99579.31;;;9.38;52.88
13456;BME280;6800;50.940;6.940;2024-01-15T01:22:10;99587.53;;;9.44;52.62
13456;BME280;6800;50.940;6.940;2024-01-15T01:26:15;99578.38;;;9.01;53.37
13456;BME280;6800;50.940;6.940;2024-01-15T01:30:17;99573.81;;;9.17;53.14
13456;BME280;6800;50.940;6.940;2024-01-15T01:34:18;99571.59;;;9.36;53.19
13456;BME280;6800;50.940;6.940;2024-01-15T01:38:21;99560.28;;;9.00;53.99
13456;BME280;6800;50.940;6.940;2024-01-15T01:42:23;99560.75;;;9.42;52.83
13456;BME280;6800;50.940;6.940;2024-01-15T01:46:27;99563.13;;;9.58;52.81
13456;BME280;6800;50.940;6.940;2024-01-15T01:50:29;99573.13;;;9.52;53.16
13456;BME280;6800;50.940;6.940;2024-01-15T01:54:35;99557.72;;;9.49;53.64
13456;BME280;6800;50.940;6.940;2024-01-15T01:58:38;99556.63;;;9.64;53.24
13456;BME280;6800;50.940;6.940;2024-01-15T02:02:39;99558.94;;;9.19;54.11
13456;BME280;6800;50.940;6.940;2024-01-15T02:06:42;99555.72;;;9.16;53.96
13456;BME280;6800;50.940;6.940;2024-01-15T02:10:43;99556.53;;;9.16;54.03
13456;BME280;6800;50.940;6.940;2024-01-15T02:14:45;99560.00;;;9.53;53.64
13456;BME280;6800;50.940;6.940;2024-01-15T02:18:47;99570.91;;;9.22;54.40
13456;BME280;6800;50.940;6.940;2024-01-15T02:22:49;99564.75;;;9.23;53.46
13456;BME280;6800;50.940;6.940;2024-01-15T02:26:50;99568.38;;;9.20;54.12
13456;BME280;6800;50.940;6.940;2024-01-15T02:30:53;99572.56;;;9.23;53.72
13456;BME280;6800;50.940;6.940;2024-01-15T02:34:55;99574.31;;;9.35;53.79
13456;BME280;6800;50.940;6.940;2024-01-15T02:38:57;99563.56;;;9.39;52.56
13456;BME280;6800;50.940;6.940;2024-01-15T02:42:59;99561.63;;;9.67;52.39
13456;BME280;6800;50.940;6.940;2024-01-15T02:47:03;99565.25;;;9.28;52.65
13456;BME280;6800;50.940;6.940;2024-01-15T02:51:05;99564.09;;;9.44;52.63
13456;BME280;6800;50.940;6.940;2024-01-15T02:55:07;99560.47;;;9.71;52.13
13456;BME280;6800;50.940;6.940;2024-01-15T02:59:09;99561.63;;;9.30;52.96
13456;BME280;6800;50.940;6.940;2024-01-15T03:03:12;99565.41;;;9.50;52.86
13456;BME280;6800;50.940;6.940;2024-01-15T03:07:16;99573.94;;;9.65;51.91
13456;BME280;6800;50.940;6.940;2024-01-15T03:11:17;99564.38;;;9.53;52.21
13456;BME280;6800;50.940;6.940;2024-01-15T03:15:19;99572.13;;;9.41;52.40
13456;BME280;6800;50.940;6.940;2024-01-15T03:19:20;99576.88;;;9.60;52.32
13456;BME280;6800;50.940;6.940;2024-01-15T03:23:22;99567.38;;;9.59;52.38
13456;BME280;6800;50.940;6.940;2024-01-15T03:27:24;99565.22;;;9.53;52.21
13456;BME280;6800;50.940;6.940;2024-01-15T03:31:25;99561.03;;;9.87;51.65
13456;BME280;6800;50.940;6.940;2024-01-15T03:35:27;99555.84;;;9.51;52.12
13456;BME280;6800;50.940;6.940;2024-01-15T03:39:30;99567.63;;;9.80;51.83
13456;BME280;6800;50.940;6.940;2024-01-15T03:43:32;99565.22;;;10.13;51.15
13456;BME280;6800;50.940;6.940;2024-01-15T03:47:34;99562.97;;;9.96;51.27
13456;BME280;6800;50.940;6.940;2024-01-15T03:51:37;99555.16;;;9.96;51.69
13456;BME280;6800;50.940;6.940;2024-01-15T03:55:39;99566.84;;;9.67;52.50
13456;BME280;6800;50.940;6.940;2024-01-15T03:59:40;99562.00;;;9.86;51.15
13456;BME280;6800;50.940;6.940;2024-01-15T04:03:43;99553.13;;;10.12;50.49
13456;BME280;6800;50.940;6.940;2024-01-15T04:07:45;99542.28;;;10.05;50.69
13456;BME280;6800;50.940;6.940;2024-01-15T04:11:46;99546.25;;;10.11;50.98
13456;BME280;6800;50.940;6.940;2024-01-15T04:15:48;99541.56;;;10.03;50.88
13456;BME280;6800;50.940;6.940;2024-01-15T04:19:50;99541.44;;;10.17;50.24
13456;BME280;6800;50.940;6.940;2024-01-15T04:23:52;99540.22;;;10.10;50.83
13456;BME280;6800;50.940;6.940;2024-01-15T04:27:53;99541.75;;;9.89;51.73
13456;BME280;6800;50.940;6.940;2024-01-15T04:31:55;99532.25;;;9.88;51.40
13456;BME280;6800;50.940;6.940;2024-01-15T04:36:01;99529.22;;;9.94;51.20
13456;BME280;6800;50.940;6.940;2024-01-15T04:40:03;99517.28;;;10.03;50.79
13456;BME280;6800;50.940;6.940;2024-01-15T04:44:06;99513.22;;;10.23;50.26
13456;BME280;6800;50.940;6.940;2024-01-15T04:48:08;99517.66;;;10.09;50.54
13456;BME280;6800;50.940;6.940;2024-01-15T04:52:11;99513.59;;;10.29;50.48
13456;BME280;6800;50.940;6.940;2024-01-15T04:56:14;99507.94;;;10.35;50.00
13456;BME280;6800;50.940;6.940;2024-01-15T05:00:15;99506.97;;;10.25;50.35
13456;BME280;6800;50.940;6.940;2024-01-15T05:04:17;99509.19;;;10.18;50.12
13456;BME280;6800;50.940;6.940;2024-01-15T05:08:20;99508.25;;;10.19;50.37
13456;BME280;6800;50.940;6.940;2024-01-15T05:12:22;99498.09;;;10.04;51.00
13456;BME280;6800;50.940;6.940;2024-01-15T05:16:24;99493.97;;;10.36;50.00
13456;BME280;6800;50.940;6.940;2024-01-15T05:20:25;99488.28;;;10.42;50.33
13456;BME280;6800;50.940;6.940;2024-01-15T05:24:27;99493.66;;;10.17;50.95
13456;BME280;6800;50.940;6.940;2024-01-15T05:28:31;99498.50;;;10.10;50.74
13456;BME280;6800;50.940;6.940;2024-01-15T05:32:33;99495.69;;;10.25;50.83
13456;BME280;6800;50.940;6.940;2024-01-15T05:36:34;99490.28;;;10.50;49.85
13456;BME280;6800;50.940;6.940;2024-01-15T05:40:36;99485.78;;;10.41;49.82
13456;BME280;6800;50.940;6.940;2024-01-15T05:44:37;99491.59;;;10.44;50.11
13456;BME280;6800;50.940;6.940;2024-01-15T05:48:41;99487.91;;;10.36;50.14
13456;BME280;6800;50.940;6.940;2024-01-15T05:52:44;99489.28;;;10.29;50.33
13456;BME280;6800;50.940;6.940;2024-01-15T05:56:46;99486.69;;;10.29;50.36
13456;BME280;6800;50.940;6.940;2024-01-15T06:00:47;99475.09;;;10.44;50.39
13456;BME280;6800;50.940;6.940;2024-01-15T06:04:51;99480.28;;;10.22;51.07
13456;BME280;6800;50.940;6.940;2024-01-15T06:08:53;99475.13;;;10.55;51.53
13456;BME280;6800;50.940;6.940;2024-01-15T06:12:54;99483.00;;;10.20;51.93
13456;BME280;6800;50.940;6.940;2024-01-15T06:16:56;99470.38;;;10.49;51.18
13456;BME280;6800;50.940;6.940;2024-01-15T06:20:58;99463.38;;;10.38;50.64
13456;BME280;6800;50.940;6.940;2024-01-15T06:25:00;99468.22;;;10.32;51.29
13456;BME280;6800;50.940;6.940;2024-01-15T06:29:02;99469.91;;;10.33;51.06
13456;BME280;6800;50.940;6.940;2024-01-15T06:33:04;99464.50;;;10.12;51.47
13456;BME280;6800;50.940;6.940;2024-01-15T06:37:06;99475.16;;;10.20;51.34
13456;BME280;6800;50.940;6.940;2024-01-15T06:41:08;99454.81;;;10.25;51.03
13456;BME280;6800;50.940;6.940;2024-01-15T06:45:10;99456.31;;;10.16;51.26
13456;BME280;6800;50.940;6.940;2024-01-15T06:49:12;99462.53;;;10.38;51.03
13456;BME280;6800;50.940;6.940;2024-01-15T06:53:14;99455.91;;;10.34;51.42
13456;BME280;6800;50.940;6.940;2024-01-15T06:57:18;99449.53;;;10.03;51.73
13456;BME280;6800;50.940;6.940;2024-01-15T07:01:27;99445.38;;;10.46;51.36
13456;BME280;6800;50.940;6.940;2024-01-15T07:05:30;99447.09;;;10.24;50.99
13456;BME280;6800;50.940;6.940;2024-01-15T07:09:33;99452.59;;;10.43;51.03
13456;BME280;6800;50.940;6.940;2024-01-15T07:13:36;99460.88;;;10.26;51.63
13456;BME280;6800;50.940;6.940;2024-01-15T07:17:38;99453.97;;;10.25;51.53
13456;BME280;6800;50.940;6.940;2024-01-15T07:21:41;99441.44;;;10.30;51.02
13456;BME280;6800;50.940;6.940;2024-01-15T07:25:46;99454.59;;;10.50;50.64
13456;BME280;6800;50.940;6.940;2024-01-15T07:29:49;99449.38;;;10.39;50.88
13456;BME280;6800;50.940;6.940;2024-01-15T07:33:52;99448.88;;;10.23;51.07
13456;BME280;6800;50.940;6.940;2024-01-15T07:37:53;99454.94;;;10.24;51.55
13456;BME280;6800;50.940;6.940;2024-01-15T07:41:57;99452.97;;;10.49;50.37
13456;BME280;6800;50.940;6.940;2024-01-15T07:45:58;99448.19;;;10.32;51.30
13456;BME280;6800;50.940;6.940;2024-01-15T07:50:00;99450.56;;;10.35;50.51
13456;BME280;6800;50.940;6.940;2024-01-15T07:54:06;99446.56;;;10.53;50.14
13456;BME280;6800;50.940;6.940;2024-01-15T07:58:09;99440.63;;;10.73;49.71
13456;BME280;6800;50.940;6.940;2024-01-15T08:02:17;99455.56;;;10.60;50.14
13456;BME280;6800;50.940;6.940;2024-01-15T08:06:18;99448.13;;;10.56;50.03
13456;BME280;6800;50.940;6.940;2024-01-15T08:10:20;99445.63;;;10.76;49.72
13456;BME280;6800;50.940;6.940;2024-01-15T08:14:24;99449.41;;;10.61;49.88
13456;BME280;6800;50.940;6.940;2024-01-15T08:18:26;99439.56;;;10.54;49.76
13456;BME280;6800;50.940;6.940;2024-01-15T08:22:28;99436.97;;;10.87;49.69
13456;BME280;6800;50.940;6.940;2024-01-15T08:26:32;99442.50;;;10.38;49.89
13456;BME280;6800;50.940;6.940;2024-01-15T08:30:35;99433.75;;;10.50;49.85
13456;BME280;6800;50.940;6.940;2024-01-15T08:34:38;99430.06;;;10.86;48.47
13456;BME280;6800;50.940;6.940;2024-01-15T08:38:40;99435.88;;;10.45;49.35
13456;BME280;6800;50.940;6.940;2024-01-15T08:42:41;99444.16;;;10.39;50.58
13456;BME280;6800;50.940;6.940;2024-01-15T08:46:44;99437.69;;;10.56;49.76
13456;BME280;6800;50.940;6.940;2024-01-15T08:50:46;99437.78;;;10.43;50.21
13456;BME280;6800;50.940;6.940;2024-01-15T08:54:52;99425.31;;;10.36;50.13
13456;BME280;6800;50.940;6.940;2024-01-15T08:58:56;99430.50;;;10.25;49.89
13456;BME280;6800;50.940;6.940;2024-01-15T09:02:58;99429.25;;;10.63;49.11
13456;BME280;6800;50.940;6.940;2024-01-15T09:07:00;99425.56;;;10.44;50.26
13456;BME280;6800;50.940;6.940;2024-01-15T09:11:01;99424.84;;;10.53;50.16
13456;BME280;6800;50.940;6.940;2024-01-15T09:15:05;99435.28;;;10.53;49.96
13456;BME280;6800;50.940;6.940;2024-01-15T09:19:08;99443.44;;;10.37;50.13
13456;BME280;6800;50.940;6.940;2024-01-15T09:23:12;99438.00;;;10.40;50.08
13456;BME280;6800;50.940;6.940;2024-01-15T09:27:13;99443.16;;;10.18;51.13
13456;BME280;6800;50.940;6.940;2024-01-15T09:31:15;99441.91;;;10.35;51.17
13456;BME280;6800;50.940;6.940;2024-01-15T09:35:18;99453.88;;;10.37;50.98
13456;BME280;6800;50.940;6.940;2024-01-15T09:39:23;99454.56;;;9.93;51.77
13456;BME280;6800;50.940;6.940;2024-01-15T09:43:29;99453.28;;;10.34;51.46
13456;BME280;6800;50.940;6.940;2024-01-15T09:47:30;99461.19;;;10.21;52.07
13456;BME280;6800;50.940;6.940;2024-01-15T09:51:32;99452.75;;;9.83;52.89
13456;BME280;6800;50.940;6.940;2024-01-15T09:55:37;99471.72;;;9.85;52.96
13456;BME280;6800;50.940;6.940;2024-01-15T09:59:41;99469.81;;;9.52;53.70
13456;BME280;6800;50.940;6.940;2024-01-15T10:03:46;99479.25;;;9.53;53.75
13456;BME280;6800;50.940;6.940;2024-01-15T10:07:49;99484.81;;;9.72;53.22
13456;BME280;6800;50.940;6.940;2024-01-15T10:11:52;99480.75;;;9.92;52.54
13456;BME280;6800;50.940;6.940;2024-01-15T10:15:54;99478.31;;;9.78;54.09
13456;BME280;6800;50.940;6.940;2024-01-15T10:19:57;99481.69;;;10.14;53.12
13456;BME280;6800;50.940;6.940;2024-01-15T10:24:00;99489.03;;;9.86;53.17
13456;BME280;6800;50.940;6.940;2024-01-15T10:28:04;99486.69;;;9.70;53.26
13456;BME280;6800;50.940;6.940;2024-01-15T10:32:08;99485.97;;;9.92;52.58
13456;BME280;6800;50.940;6.940;2024-01-15T10:36:10;99479.13;;;10.02;52.34
13456;BME280;6800;50.940;6.940;2024-01-15T10:40:14;99487.75;;;10.15;52.35
13456;BME280;6800;50.940;6.940;2024-01-15T10:44:16;99483.09;;;10.53;52.19
13456;BME280;6800;50.940;6.940;2024-01-15T10:48:19;99490.16;;;10.05;52.09
13456;BME280;6800;50.940;6.940;2024-01-15T10:57:39;99485.38;;;9.65;52.92
13456;BME280;6800;50.940;6.940;2024-01-15T11:01:44;99497.34;;;9.43;53.77
13456;BME280;6800;50.940;6.940;2024-01-15T11:05:48;99492.22;;;9.66;53.85
13456;BME280;6800;50.940;6.940;2024-01-15T11:09:52;99489.88;;;9.63;53.50
13456;BME280;6800;50.940;6.940;2024-01-15T11:13:54;99485.81;;;10.52;52.45
13456;BME280;6800;50.940;6.940;2024-01-15T11:17:58;99490.03;;;10.31;52.77
13456;BME280;6800;50.940;6.940;2024-01-15T11:22:07;99485.13;;;10.15;52.85
13456;BME280;6800;50.940;6.940;2024-01-15T11:30:38;99495.25;;;10.42;52.43
13456;BME280;6800;50.940;6.940;2024-01-15T11:35:00;99491.84;;;10.52;52.46
13456;BME280;6800;50.940;6.940;2024-01-15T11:43:28;99498.63;;;10.66;51.77
13456;BME280;6800;50.940;6.940;2024-01-15T11:52:04;99499.19;;;10.36;52.51
13456;BME280;6800;50.940;6.940;2024-01-15T11:56:14;99506.78;;;10.50;52.25
13456;BME280;6800;50.940;6.940;2024-01-15T12:00:18;99497.09;;;10.63;51.75
13456;BME280;6800;50.940;6.940;2024-01-15T12:04:20;99497.72;;;10.21;52.52
13456;BME280;6800;50.940;6.940;2024-01-15T12:08:23;99491.28;;;10.60;51.54
13456;BME280;6800;50.940;6.940;2024-01-15T12:12:37;99489.00;;;10.55;51.44
13456;BME280;6800;50.940;6.940;2024-01-15T12:16:40;99488.44;;;10.85;51.38
13456;BME280;6800;50.940;6.940;2024-01-15T12:20:43;99492.09;;;10.60;51.33
13456;BME280;6800;50.940;6.940;2024-01-15T12:24:47;99484.88;;;11.19;50.69
13456;BME280;6800;50.940;6.940;2024-01-15T12:29:09;99473.03;;;11.04;50.75
13456;BME280;6800;50.940;6.940;2024-01-15T12:33:44;99487.78;;;11.70;48.82
13456;BME280;6800;50.940;6.940;2024-01-15T12:37:48;99491.38;;;11.25;49.73
13456;BME280;6800;50.940;6.940;2024-01-15T12:41:49;99484.03;;;11.08;49.44
13456;BME280;6800;50.940;6.940;2024-01-15T12:45:51;99482.88;;;10.89;50.03
13456;BME280;6800;50.940;6.940;2024-01-15T12:49:53;99496.47;;;11.37;49.11
13456;BME280;6800;50.940;6.940;2024-01-15T12:54:06;99483.94;;;10.98;49.81
13456;BME280;6800;50.940;6.940;2024-01-15T12:58:07;99491.13;;;11.39;48.77
13456;BME280;6800;50.940;6.940;2024-01-15T13:02:12;99501.75;;;11.58;48.45
13456;BME280;6800;50.940;6.940;2024-01-15T13:06:15;99509.19;;;11.42;48.17
13456;BME280;6800;50.940;6.940;2024-01-15T13:10:18;99500.84;;;11.48;48.73
13456;BME280;6800;50.940;6.940;2024-01-15T13:14:19;99498.97;;;11.39;47.40
13456;BME280;6800;50.940;6.940;2024-01-15T13:18:21;99495.91;;;11.23;47.69
13456;BME280;6800;50.940;6.940;2024-01-15T13:22:24;99496.38;;;10.61;48.95
13456;BME280;6800;50.940;6.940;2024-01-15T13:26:34;99486.06;;;11.04;47.61
13456;BME280;6800;50.940;6.940;2024-01-15T13:30:38;99505.66;;;10.87;48.31
13456;BME280;6800;50.940;6.940;2024-01-15T13:34:40;99511.56;;;11.34;48.38
13456;BME280;6800;50.940;6.940;2024-01-15T13:38:43;99504.47;;;10.91;48.86
13456;BME280;6800;50.940;6.940;2024-01-15T13:42:47;99504.94;;;10.74;50.24
13456;BME280;6800;50.940;6.940;2024-01-15T13:46:50;99515.97;;;11.33;48.57
13456;BME280;6800;50.940;6.940;2024-01-15T13:50:52;99517.84;;;11.09;48.66
13456;BME280;6800;50.940;6.940;2024-01-15T13:54:54;99521.53;;;10.84;49.50
13456;BME280;6800;50.940;6.940;2024-01-15T13:58:55;99519.97;;;10.60;49.20
13456;BME280;6800;50.940;6.940;2024-01-15T14:02:57;99533.84;;;10.60;49.33
13456;BME280;6800;50.940;6.940;2024-01-15T14:06:59;99541.53;;;10.51;49.76
13456;BME280;6800;50.940;6.940;2024-01-15T14:11:03;99539.81;;;10.28;49.95
13456;BME280;6800;50.940;6.940;2024-01-15T14:15:07;99543.06;;;10.42;49.65
13456;BME280;6800;50.940;6.940;2024-01-15T14:19:09;99553.28;;;10.45;49.46
13456;BME280;6800;50.940;6.940;2024-01-15T14:23:13;99565.03;;;10.62;49.85
13456;BME280;6800;50.940;6.940;2024-01-15T14:27:15;99573.41;;;10.43;50.12
13456;BME280;6800;50.940;6.940;2024-01-15T14:31:18;99581.28;;;10.65;49.58
13456;BME280;6800;50.940;6.940;2024-01-15T14:35:21;99575.97;;;10.78;49.40
13456;BME280;6800;50.940;6.940;2024-01-15T14:39:23;99599.66;;;10.29;49.45
13456;BME280;6800;50.940;6.940;2024-01-15T14:43:25;99585.91;;;9.67;51.88
13456;BME280;6800;50.940;6.940;2024-01-15T14:47:31;99608.25;;;10.42;50.32
13456;BME280;6800;50.940;6.940;2024-01-15T14:51:33;99598.81;;;10.29;50.45
13456;BME280;6800;50.940;6.940;2024-01-15T14:55:38;99608.44;;;9.92;51.55
13456;BME280;6800;50.940;6.940;2024-01-15T14:59:40;99624.38;;;10.00;51.25
13456;BME280;6800;50.940;6.940;2024-01-15T15:03:42;99611.38;;;10.24;50.65
13456;BME280;6800;50.940;6.940;2024-01-15T15:07:49;99624.63;;;10.20;50.68
13456;BME280;6800;50.940;6.940;2024-01-15T15:11:52;99621.38;;;9.93;51.38
13456;BME280;6800;50.940;6.940;2024-01-15T15:15:54;99626.56;;;10.53;49.79
13456;BME280;6800;50.940;6.940;2024-01-15T15:19:56;99622.41;;;10.51;50.10
13456;BME280;6800;50.940;6.940;2024-01-15T15:23:58;99632.69;;;10.41;49.84
13456;BME280;6800;50.940;6.940;2024-01-15T15:28:02;99648.22;;;10.43;49.72
13456;BME280;6800;50.940;6.940;2024-01-15T15:32:06;99650.53;;;10.11;50.73
13456;BME280;6800;50.940;6.940;2024-01-15T15:36:09;99665.44;;;10.09;50.52
13456;BME280;6800;50.940;6.940;2024-01-15T15:40:10;99680.50;;;10.29;49.84
13456;BME280;6800;50.940;6.940;2024-01-15T15:44:14;99688.00;;;10.34;49.90
13456;BME280;6800;50.940;6.940;2024-01-15T15:48:18;99713.59;;;10.03;50.17
13456;BME280;6800;50.940;6.940;2024-01-15T15:52:21;99722.56;;;9.99;50.65
13456;BME280;6800;50.940;6.940;2024-01-15T15:56:25;99718.94;;;10.02;50.87
13456;BME280;6800;50.940;6.940;2024-01-15T16:00:27;99738.13;;;9.76;51.63
13456;BME280;6800;50.940;6.940;2024-01-15T16:04:29;99737.31;;;10.13;50.08
13456;BME280;6800;50.940;6.940;2024-01-15T16:08:33;99746.44;;;10.18;49.78
13456;BME280;6800;50.940;6.940;2024-01-15T16:12:35;99753.34;;;9.57;51.17
13456;BME280;6800;50.940;6.940;2024-01-15T16:16:37;99752.09;;;10.00;50.66
13456;BME280;6800;50.940;6.940;2024-01-15T16:21:00;99764.63;;;9.82;50.71
13456;BME280;6800;50.940;6.940;2024-01-15T16:25:23;99759.09;;;10.12;50.49
13456;BME280;6800;50.940;6.940;2024-01-15T16:29:25;99765.22;;;10.24;50.26
13456;BME280;6800;50.940;6.940;2024-01-15T16:33:27;99770.50;;;10.47;49.59
13456;BME280;6800;50.940;6.940;2024-01-15T16:37:28;99778.97;;;10.38;49.71
13456;BME280;6800;50.940;6.940;2024-01-15T16:41:31;99765.19;;;10.36;49.80
13456;BME280;6800;50.940;6.940;2024-01-15T16:45:32;99780.25;;;9.95;50.90
13456;BME280;6800;50.940;6.940;2024-01-15T16:49:34;99775.84;;;10.08;50.71
13456;BME280;6800;50.940;6.940;2024-01-15T16:53:39;99780.56;;;10.03;50.77
13456;BME280;6800;50.940;6.940;2024-01-15T16:57:40;99787.44;;;10.16;51.40
13456;BME280;6800;50.940;6.940;2024-01-15T17:01:42;99790.38;;;10.12;50.97
13456;BME280;6800;50.940;6.940;2024-01-15T17:05:45;99787.88;;;9.98;51.07
13456;BME280;6800;50.940;6.940;2024-01-15T17:09:48;99796.72;;;9.95;50.91
13456;BME280;6800;50.940;6.940;2024-01-15T17:13:50;99785.38;;;9.84;50.93
13456;BME280;6800;50.940;6.940;2024-01-15T17:18:05;99798.72;;;9.79;50.92
13456;BME280;6800;50.940;6.940;2024-01-15T17:22:08;99800.97;;;9.59;51.08
13456;BME280;6800;50.940;6.940;2024-01-15T17:26:16;99801.94;;;9.70;51.13
13456;BME280;6800;50.940;6.940;2024-01-15T17:30:18;99799.22;;;9.97;50.76
13456;BME280;6800;50.940;6.940;2024-01-15T17:34:20;99804.97;;;9.77;50.67
13456;BME280;6800;50.940;6.940;2024-01-15T17:38:23;99811.09;;;9.76;50.07
13456;BME280;6800;50.940;6.940;2024-01-15T17:42:33;99822.59;;;9.73;50.44
13456;BME280;6800;50.940;6.940;2024-01-15T17:46:35;99819.34;;;9.82;52.32
13456;BME280;6800;50.940;6.940;2024-01-15T17:50:37;99834.34;;;9.79;51.31
13456;BME280;6800;50.940;6.940;2024-01-15T17:54:40;99834.47;;;9.90;50.51
13456;BME280;6800;50.940;6.940;2024-01-15T17:58:42;99835.59;;;9.21;51.02
13456;BME280;6800;50.940;6.940;2024-01-15T18:02:45;99849.81;;;9.42;50.59
13456;BME280;6800;50.940;6.940;2024-01-15T18:06:47;99847.38;;;9.66;50.73
13456;BME280;6800;50.940;6.940;2024-01-15T18:10:52;99859.34;;;9.29;50.95
13456;BME280;6800;50.940;6.940;2024-01-15T18:14:53;99864.44;;;9.58;50.65
13456;BME280;6800;50.940;6.940;2024-01-15T18:18:55;99868.97;;;9.81;50.26
13456;BME280;6800;50.940;6.940;2024-01-15T18:22:57;99861.66;;;9.34;50.52
13456;BME280;6800;50.940;6.940;2024-01-15T18:27:03;99859.97;;;9.60;50.81
13456;BME280;6800;50.940;6.940;2024-01-15T18:31:05;99867.06;;;9.70;50.15
13456;BME280;6800;50.940;6.940;2024-01-15T18:35:08;99878.41;;;9.69;50.03
13456;BME280;6800;50.940;6.940;2024-01-15T18:39:11;99876.47;;;9.73;49.81
13456;BME280;6800;50.940;6.940;2024-01-15T18:43:13;99886.75;;;9.62;49.73
13456;BME280;6800;50.940;6.940;2024-01-15T18:47:15;99892.53;;;9.53;50.34
13456;BME280;6800;50.940;6.940;2024-01-15T18:51:21;99888.28;;;9.52;50.39
13456;BME280;6800;50.940;6.940;2024-01-15T18:55:26;99894.50;;;9.36;50.68
13456;BME280;6800;50.940;6.940;2024-01-15T18:59:31;99898.16;;;9.47;49.87
13456;BME280;6800;50.940;6.940;2024-01-15T19:03:34;99898.88;;;9.49;49.77
13456;BME280;6800;50.940;6.940;2024-01-15T19:07:41;99900.06;;;9.57;49.83
13456;BME280;6800;50.940;6.940;2024-01-15T19:11:47;99903.22;;;9.35;49.78
13456;BME280;6800;50.940;6.940;2024-01-15T19:15:49;99912.94;;;8.93;50.19
13456;BME280;6800;50.940;6.940;2024-01-15T19:19:50;99915.09;;;9.13;50.51
13456;BME280;6800;50.940;6.940;2024-01-15T19:23:52;99921.66;;;9.32;50.09
13456;BME280;6800;50.940;6.940;2024-01-15T19:27:59;99927.88;;;9.57;49.29
13456;BME280;6800;50.940;6.940;2024-01-15T19:32:04;99939.78;;;8.93;50.72
13456;BME280;6800;50.940;6.940;2024-01-15T19:36:07;99940.47;;;9.23;51.14
13456;BME280;6800;50.940;6.940;2024-01-15T19:40:41;99945.44;;;9.00;50.89
13456;BME280;6800;50.940;6.940;2024-01-15T19:45:02;99941.88;;;9.15;50.75
13456;BME280;6800;50.940;6.940;2024-01-15T19:49:06;99950.63;;;9.14;51.40
13456;BME280;6800;50.940;6.940;2024-01-15T19:53:09;99958.28;;;9.29;50.09
13456;BME280;6800;50.940;6.940;2024-01-15T19:57:10;99968.66;;;9.17;50.33
13456;BME280;6800;50.940;6.940;2024-01-15T20:01:12;99954.56;;;9.33;50.34
13456;BME280;6800;50.940;6.940;2024-01-15T20:05:16;99961.25;;;9.37;50.43
13456;BME280;6800;50.940;6.940;2024-01-15T20:09:19;99972.72;;;9.21;50.89
13456;BME280;6800;50.940;6.940;2024-01-15T20:13:21;99974.69;;;9.17;50.24
13456;BME280;6800;50.940;6.940;2024-01-15T20:17:23;99991.53;;;8.98;51.04
13456;BME280;6800;50.940;6.940;2024-01-15T20:21:26;99993.22;;;8.99;51.50
13456;BME280;6800;50.940;6.940;2024-01-15T20:25:28;99997.16;;;9.32;50.24
13456;BME280;6800;50.940;6.940;2024-01-15T20:29:30;99997.63;;;9.25;50.39
13456;BME280;6800;50.940;6.940;2024-01-15T20:33:32;100007.47;;;9.34;50.39
13456;BME280;6800;50.940;6.940;2024-01-15T20:37:35;100017.06;;;9.74;49.71
13456;BME280;6800;50.940;6.940;2024-01-15T20:41:37;100020.22;;;9.38;50.17
13456;BME280;6800;50.940;6.940;2024-01-15T20:45:40;100022.22;;;9.62;49.89
13456;BME280;6800;50.940;6.940;2024-01-15T20:49:41;100016.81;;;9.65;49.36
13456;BME280;6800;50.940;6.940;2024-01-15T20:53:44;100014.72;;;9.70;49.84
13456;BME280;6800;50.940;6.940;2024-01-15T20:57:46;100026.34;;;9.78;49.52
13456;BME280;6800;50.940;6.940;2024-01-15T21:01:47;100024.78;;;9.35;49.93
13456;BME280;6800;50.940;6.940;2024-01-15T21:05:49;100015.53;;;9.58;49.78
13456;BME280;6800;50.940;6.940;2024-01-15T21:09:52;100023.13;;;9.61;50.14
13456;BME280;6800;50.940;6.940;2024-01-15T21:14:13;100030.88;;;9.48;49.27
13456;BME280;6800;50.940;6.940;2024-01-15T21:18:42;100045.81;;;9.32;50.72
13456;BME280;6800;50.940;6.940;2024-01-15T21:22:54;100037.19;;;9.17;50.70
13456;BME280;6800;50.940;6.940;2024-01-15T21:26:55;100034.94;;;9.25;50.02
13456;BME280;6800;50.940;6.940;2024-01-15T21:30:59;100049.06;;;9.21;50.53
13456;BME280;6800;50.940;6.940;2024-01-15T21:35:01;100058.16;;;9.42;49.68
13456;BME280;6800;50.940;6.940;2024-01-15T21:39:03;100053.75;;;9.57;49.42
13456;BME280;6800;50.940;6.940;2024-01-15T21:43:06;100052.94;;;9.42;49.64
13456;BME280;6800;50.940;6.940;2024-01-15T21:47:10;100046.03;;;9.56;49.76
13456;BME280;6800;50.940;6.940;2024-01-15T21:51:15;100052.63;;;9.61;49.39
13456;BME280;6800;50.940;6.940;2024-01-15T21:55:17;100062.03;;;9.64;49.62
13456;BME280;6800;50.940;6.940;2024-01-15T21:59:20;100057.28;;;9.70;49.48
13456;BME280;6800;50.940;6.940;2024-01-15T22:03:26;100060.16;;;9.66;49.54
13456;BME280;6800;50.940;6.940;2024-01-15T22:07:30;100061.22;;;9.49;50.39
13456;BME280;6800;50.940;6.940;2024-01-15T22:11:35;100070.06;;;9.87;49.34